Time;durP1;ratioP1;P1;durP2;ratioP2;P2;SDS_P1;SDS_P2;PMS_P1;PMS_P2;Temp;Humidity;BMP_temperature;BMP_pressure;BME280_temperature;BME280_humidity;BME280_pressure;Samples;Min_cycle;Max_cycle;Signal;HPM_P1;HPM_P2
2023/02/06 00:01:30;;;;;;;32.23;17.50;;;;;;;2.41;78.91;98039.31;4968880;28;20169;-69
2023/02/06 00:03:55;;;;;;;30.40;18.23;;;;;;;2.47;77.81;98029.94;4968818;28;20924;-70
2023/02/06 00:06:21;;;;;;;36.87;20.30;;;;;;;2.67;77.32;98031.91;4968437;28;20679;-69
2023/02/06 00:08:46;;;;;;;42.70;19.60;;;;;;;2.66;76.93;98038.81;4968791;28;20623;-70
2023/02/06 00:11:15;;;;;;;37.17;19.13;;;;;;;2.75;76.85;98041.53;4968393;28;20177;-69
2023/02/06 00:13:41;;;;;;;34.23;19.53;;;;;;;2.58;77.41;98040.47;4968273;28;20201;-69
2023/02/06 00:16:29;;;;;;;40.30;22.13;;;;;;;2.75;77.19;98045.88;4968248;28;20508;-68
2023/02/06 00:18:56;;;;;;;40.80;21.90;;;;;;;2.64;77.35;98047.44;4968974;28;21218;-69
2023/02/06 00:21:23;;;;;;;36.97;21.20;;;;;;;2.38;78.49;98050.50;4968712;28;20475;-70
2023/02/06 00:23:50;;;;;;;37.30;20.60;;;;;;;2.33;79.13;98045.25;4968429;28;20414;-70
2023/02/06 00:26:16;;;;;;;39.73;19.83;;;;;;;2.27;79.65;98041.75;4968252;28;20886;-70
2023/02/06 00:28:42;;;;;;;36.00;21.10;;;;;;;2.71;77.82;98042.34;4968363;28;20420;-69
2023/02/06 00:31:08;;;;;;;41.90;21.00;;;;;;;2.56;77.67;98036.09;4968630;28;20188;-69
2023/02/06 00:33:34;;;;;;;43.23;23.03;;;;;;;2.25;79.26;98044.28;4968523;28;20589;-70
2023/02/06 00:35:59;;;;;;;42.33;22.17;;;;;;;2.39;78.98;98048.81;4968146;28;20180;-69
2023/02/06 00:38:25;;;;;;;45.03;22.50;;;;;;;1.95;80.44;98048.97;4968417;28;20220;-70
2023/02/06 00:40:50;;;;;;;50.50;23.63;;;;;;;2.37;79.23;98055.69;4972264;28;20184;-70
2023/02/06 00:43:16;;;;;;;49.07;23.60;;;;;;;2.41;78.85;98057.47;4972131;28;20202;-67
2023/02/06 00:45:41;;;;;;;51.23;22.00;;;;;;;2.26;79.60;98052.94;4955511;28;20170;-71
2023/02/06 00:48:08;;;;;;;46.57;22.00;;;;;;;2.02;79.93;98064.63;4952427;29;20194;-69
2023/02/06 00:50:33;;;;;;;44.40;21.23;;;;;;;1.72;81.46;98062.38;4952528;29;20185;-70
2023/02/06 00:52:59;;;;;;;54.90;23.23;;;;;;;1.73;81.81;98065.88;4952437;29;20473;-69
2023/02/06 00:55:25;;;;;;;46.57;22.27;;;;;;;1.83;81.35;98071.22;4952527;29;20197;-68
2023/02/06 00:57:50;;;;;;;53.03;25.07;;;;;;;2.28;79.40;98059.88;4952124;28;20190;-69
2023/02/06 01:00:16;;;;;;;47.87;26.23;;;;;;;2.60;78.09;98056.00;4952237;29;20181;-68
2023/02/06 01:02:41;;;;;;;52.97;24.33;;;;;;;2.73;77.30;98063.13;4952129;29;20186;-68
2023/02/06 01:05:07;;;;;;;46.67;23.77;;;;;;;2.41;78.43;98063.53;4952592;29;20182;-69
2023/02/06 01:07:32;;;;;;;42.10;22.50;;;;;;;2.65;77.51;98068.19;4952351;29;20197;-69
2023/02/06 01:09:58;;;;;;;41.97;21.47;;;;;;;2.70;77.30;98065.69;4952634;29;20189;-70
2023/02/06 01:12:23;;;;;;;40.63;22.50;;;;;;;2.64;77.05;98076.81;4952674;29;20206;-69
2023/02/06 01:14:49;;;;;;;43.10;24.60;;;;;;;2.08;79.04;98072.53;4952601;29;20398;-69
2023/02/06 01:17:14;;;;;;;41.43;24.53;;;;;;;1.90;79.50;98070.47;4951941;29;20927;-69
2023/02/06 01:19:39;;;;;;;39.00;23.40;;;;;;;2.01;78.94;98075.84;4952646;29;20201;-70
2023/02/06 01:22:05;;;;;;;37.33;22.17;;;;;;;1.84;79.49;98078.16;4951937;29;20180;-68
2023/02/06 01:24:31;;;;;;;38.77;24.63;;;;;;;2.08;79.45;98072.53;4952280;29;20174;-70
2023/02/06 01:26:56;;;;;;;49.00;23.83;;;;;;;1.93;78.03;98067.06;4951525;28;20480;-69
2023/02/06 01:29:22;;;;;;;39.03;23.30;;;;;;;2.43;77.00;98060.94;4952182;29;20175;-68
2023/02/06 01:31:47;;;;;;;37.57;21.93;;;;;;;2.36;76.63;98061.72;4952118;29;20170;-70
2023/02/06 01:34:13;;;;;;;29.10;20.10;;;;;;;2.35;76.48;98058.25;4952114;29;20897;-71
2023/02/06 01:36:38;;;;;;;34.23;21.23;;;;;;;2.61;75.59;98063.81;4951571;29;20276;-70
2023/02/06 01:39:05;;;;;;;30.43;20.67;;;;;;;2.54;75.38;98059.41;4951638;29;20204;-68
2023/02/06 01:41:31;;;;;;;34.17;22.30;;;;;;;2.55;75.06;98055.94;4952046;29;20174;-69
2023/02/06 01:44:14;;;;;;;30.17;21.33;;;;;;;2.27;76.72;98047.78;4954932;28;20418;-69
2023/02/06 01:46:42;;;;;;;40.87;22.43;;;;;;;2.13;76.92;98046.69;4971157;28;20453;-68
2023/02/06 01:49:12;;;;;;;34.10;22.90;;;;;;;2.15;76.20;98049.28;4971402;28;20448;-69
2023/02/06 01:51:39;;;;;;;33.17;21.57;;;;;;;2.19;75.51;98038.13;4971566;28;20875;-68
2023/02/06 01:54:06;;;;;;;39.53;22.73;;;;;;;2.28;74.96;98031.38;4970978;28;20456;-71
2023/02/06 01:56:46;;;;;;;27.27;20.07;;;;;;;2.55;74.65;98027.44;4970692;28;20879;-69
2023/02/06 01:59:12;;;;;;;28.43;19.50;;;;;;;1.99;75.96;98030.94;4970899;28;20960;-70
2023/02/06 02:01:39;;;;;;;28.07;19.90;;;;;;;2.04;75.89;98023.25;4971103;28;20413;-68
2023/02/06 02:04:08;;;;;;;31.97;18.03;;;;;;;1.85;75.81;98022.94;4970999;28;20969;-69
2023/02/06 02:06:34;;;;;;;27.70;19.70;;;;;;;1.94;76.49;98021.34;4970501;28;20456;-69
2023/02/06 02:09:01;;;;;;;29.93;19.20;;;;;;;2.02;75.72;98030.09;4971260;28;20557;-67
2023/02/06 02:11:35;;;;;;;26.87;18.93;;;;;;;1.83;76.77;98037.56;4970677;28;20771;-69
2023/02/06 02:14:02;;;;;;;28.80;18.87;;;;;;;1.81;76.42;98034.06;4971397;28;21085;-67
2023/02/06 02:16:50;;;;;;;32.90;18.50;;;;;;;1.77;76.74;98037.47;4970459;28;20496;-68
2023/02/06 02:19:43;;;;;;;24.27;17.40;;;;;;;1.72;76.09;98023.56;4970847;28;20417;-69
2023/02/06 02:22:35;;;;;;;25.50;18.60;;;;;;;1.83;75.62;98029.81;4970529;28;20410;-68
2023/02/06 02:25:19;;;;;;;30.77;18.43;;;;;;;2.03;75.40;98034.44;4970083;28;20409;-68
2023/02/06 02:28:12;;;;;;;21.03;16.83;;;;;;;2.17;74.42;98030.34;4969728;28;20440;-68
2023/02/06 02:31:12;;;;;;;26.40;19.27;;;;;;;2.17;74.68;98035.50;4969928;28;20417;-68
2023/02/06 02:33:46;;;;;;;24.40;16.10;;;;;;;2.31;74.04;98040.91;4970247;28;20461;-68
2023/02/06 02:36:25;;;;;;;22.20;16.70;;;;;;;2.31;73.79;98044.38;4970214;28;20413;-70
2023/02/06 02:38:56;;;;;;;21.30;16.97;;;;;;;2.15;73.46;98038.94;4971009;28;20475;-68
2023/02/06 02:41:27;;;;;;;25.63;17.47;;;;;;;2.09;74.41;98047.50;4970537;28;20475;-69
2023/02/06 02:44:18;;;;;;;25.53;16.97;;;;;;;2.40;73.55;98050.56;4968657;28;20413;-69
2023/02/06 02:46:49;;;;;;;24.50;17.70;;;;;;;2.47;73.13;98053.25;4956890;28;21017;-68
2023/02/06 02:49:18;;;;;;;20.10;15.03;;;;;;;2.21;74.83;98068.41;4950942;29;20492;-68
2023/02/06 02:51:46;;;;;;;26.03;18.33;;;;;;;2.11;73.88;98061.34;4950890;29;20418;-69
2023/02/06 02:54:11;;;;;;;22.47;17.23;;;;;;;2.29;73.11;98048.69;4950374;29;21166;-69
2023/02/06 02:56:37;;;;;;;22.03;16.43;;;;;;;2.02;74.04;98050.81;4950119;29;20449;-69
2023/02/06 02:59:15;;;;;;;22.13;16.90;;;;;;;2.32;73.37;98048.72;4949783;28;20178;-68
2023/02/06 03:02:10;;;;;;;18.80;15.63;;;;;;;2.56;71.94;98051.66;4949355;28;20178;-68
2023/02/06 03:04:52;;;;;;;18.13;14.47;;;;;;;2.69;71.35;98056.13;4949478;29;20915;-67
2023/02/06 03:07:46;;;;;;;20.37;15.73;;;;;;;2.54;71.69;98049.03;4949781;29;20472;-68
2023/02/06 03:10:21;;;;;;;17.57;14.60;;;;;;;2.48;70.98;98051.53;4950095;28;20428;-68
2023/02/06 03:13:10;;;;;;;16.47;14.23;;;;;;;2.05;72.96;98059.50;4950103;29;20409;-69
2023/02/06 03:15:57;;;;;;;15.83;13.90;;;;;;;2.50;71.76;98058.50;4949761;29;20840;-69
2023/02/06 03:18:33;;;;;;;18.67;14.10;;;;;;;2.48;71.61;98065.38;4949719;29;20438;-68
2023/02/06 03:21:02;;;;;;;19.10;13.83;;;;;;;2.60;70.81;98071.56;4949740;28;20455;-68
2023/02/06 03:23:32;;;;;;;15.30;13.67;;;;;;;2.12;71.75;98070.84;4949811;29;20434;-69
2023/02/06 03:26:01;;;;;;;18.33;14.90;;;;;;;1.93;72.86;98076.56;4949187;29;20499;-69
2023/02/06 03:28:32;;;;;;;19.17;13.97;;;;;;;1.96;73.68;98081.78;4949468;29;20434;-69
2023/02/06 03:31:01;;;;;;;19.10;14.70;;;;;;;1.79;73.74;98081.50;4949562;29;20409;-69
2023/02/06 03:33:36;;;;;;;17.90;14.57;;;;;;;1.83;74.10;98076.41;4949084;29;20465;-68
2023/02/06 03:36:04;;;;;;;20.43;14.60;;;;;;;1.84;73.67;98069.50;4949318;29;20500;-68
2023/02/06 03:38:30;;;;;;;17.77;14.60;;;;;;;2.14;72.56;98071.72;4949534;29;20477;-68
2023/02/06 03:40:58;;;;;;;16.73;13.17;;;;;;;2.09;71.93;98068.22;4949354;29;20407;-68
2023/02/06 03:43:26;;;;;;;16.80;12.37;;;;;;;1.60;73.73;98059.59;4948916;29;20502;-68
2023/02/06 03:45:59;;;;;;;18.53;14.87;;;;;;;1.66;73.62;98077.81;4966433;28;20492;-68
2023/02/06 03:48:37;;;;;;;14.57;12.90;;;;;;;1.40;73.55;98075.63;4968086;28;20441;-69
2023/02/06 03:51:12;;;;;;;15.37;13.30;;;;;;;1.74;72.54;98081.41;4968234;28;20408;-68
2023/02/06 03:53:38;;;;;;;18.10;13.40;;;;;;;1.47;73.38;98077.47;4968279;28;20488;-69
2023/02/06 03:56:14;;;;;;;16.07;13.63;;;;;;;1.85;72.17;98074.72;4967860;28;20534;-68
2023/02/06 03:58:40;;;;;;;16.37;13.47;;;;;;;1.48;72.73;98071.44;4968427;28;20459;-68
2023/02/06 04:01:06;;;;;;;17.03;13.40;;;;;;;1.39;72.69;98066.09;4968164;28;20811;-68
2023/02/06 04:03:32;;;;;;;17.60;13.23;;;;;;;1.35;72.92;98066.03;4968111;28;20253;-69
2023/02/06 04:05:58;;;;;;;14.27;12.00;;;;;;;1.20;73.29;98062.28;4967718;28;20524;-68
2023/02/06 04:08:23;;;;;;;16.77;13.33;;;;;;;1.21;72.60;98058.00;4967963;28;20672;-69
2023/02/06 04:10:49;;;;;;;13.30;11.80;;;;;;;1.27;73.81;98056.38;4968204;28;20199;-70
2023/02/06 04:13:14;;;;;;;17.47;13.73;;;;;;;1.32;73.30;98055.59;4967453;28;20205;-68
2023/02/06 04:15:39;;;;;;;15.87;12.20;;;;;;;1.02;73.47;98055.06;4968140;28;20272;-68
2023/02/06 04:18:05;;;;;;;17.37;13.70;;;;;;;0.91;73.92;98048.78;4967856;28;20190;-69
2023/02/06 04:20:30;;;;;;;17.73;13.43;;;;;;;1.11;73.96;98045.72;4968369;28;20701;-69
2023/02/06 04:22:57;;;;;;;18.43;13.53;;;;;;;1.13;74.30;98046.63;4968161;28;20196;-68
2023/02/06 04:25:23;;;;;;;15.03;13.43;;;;;;;1.40;73.13;98052.34;4968157;28;20176;-69
2023/02/06 04:27:49;;;;;;;17.90;11.87;;;;;;;1.55;72.35;98048.28;4968151;28;20428;-69
2023/02/06 04:30:16;;;;;;;16.13;12.57;;;;;;;1.37;73.25;98039.34;4967874;28;20180;-69
2023/02/06 04:32:41;;;;;;;21.30;13.70;;;;;;;1.47;73.02;98046.44;4967719;28;20417;-68
2023/02/06 04:35:07;;;;;;;18.93;14.20;;;;;;;1.33;72.77;98045.31;4968074;28;20500;-69
2023/02/06 04:37:32;;;;;;;18.40;13.40;;;;;;;1.03;74.69;98053.31;4967605;28;20197;-69
2023/02/06 04:39:58;;;;;;;14.17;12.77;;;;;;;1.15;73.89;98042.34;4968232;28;20253;-69
2023/02/06 04:42:23;;;;;;;13.37;11.97;;;;;;;1.29;73.19;98045.22;4968023;28;20188;-69
2023/02/06 04:44:49;;;;;;;15.90;12.90;;;;;;;1.17;73.60;98040.69;4958532;28;20178;-69
2023/02/06 04:47:14;;;;;;;15.07;12.60;;;;;;;1.23;73.37;98036.50;4948390;29;20194;-69
2023/02/06 04:49:39;;;;;;;25.03;13.00;;;;;;;1.47;72.32;98038.69;4949106;29;20206;-68
2023/02/06 04:52:05;;;;;;;18.47;12.70;;;;;;;1.53;72.19;98045.66;4948995;29;20170;-69
2023/02/06 04:54:30;;;;;;;16.97;12.50;;;;;;;1.60;71.66;98041.47;4948670;28;20743;-69
2023/02/06 04:56:56;;;;;;;16.13;13.60;;;;;;;1.62;72.19;98039.78;4948180;29;20533;-67
2023/02/06 04:59:21;;;;;;;17.50;12.40;;;;;;;1.58;71.47;98043.16;4948550;29;20659;-69
2023/02/06 05:01:47;;;;;;;15.97;13.73;;;;;;;1.54;72.34;98046.56;4948342;29;20171;-68
2023/02/06 05:04:12;;;;;;;18.07;13.13;;;;;;;1.60;71.37;98046.66;4948791;29;20170;-69
2023/02/06 05:06:37;;;;;;;13.97;11.90;;;;;;;1.66;71.00;98036.41;4947865;29;20738;-69
2023/02/06 05:09:03;;;;;;;19.77;13.57;;;;;;;1.62;71.51;98045.84;4948328;29;20181;-70
2023/02/06 05:11:29;;;;;;;15.43;12.60;;;;;;;1.59;71.95;98053.53;4948589;29;20946;-67
2023/02/06 05:13:55;;;;;;;18.40;11.87;;;;;;;1.50;72.11;98042.16;4948328;28;20501;-68
2023/02/06 05:16:20;;;;;;;16.80;12.97;;;;;;;1.61;72.02;98036.34;4947855;29;20213;-68
2023/02/06 05:18:46;;;;;;;20.23;13.63;;;;;;;1.67;71.11;98040.75;4948465;29;20635;-68
2023/02/06 05:21:13;;;;;;;19.80;11.53;;;;;;;1.69;71.03;98039.91;4948276;29;20547;-69
2023/02/06 05:23:39;;;;;;;21.10;13.47;;;;;;;1.51;71.32;98044.75;4948260;29;20171;-69
2023/02/06 05:26:05;;;;;;;14.50;12.57;;;;;;;1.62;70.76;98055.31;4950980;28;20918;-70
2023/02/06 05:28:32;;;;;;;24.20;14.30;;;;;;;1.46;70.75;98043.81;4951846;29;20619;-69
2023/02/06 05:31:01;;;;;;;17.90;12.77;;;;;;;1.51;70.67;98046.47;4951437;29;20888;-69
2023/02/06 05:33:27;;;;;;;16.63;11.80;;;;;;;1.62;70.06;98030.31;4951866;29;21132;-69
2023/02/06 05:35:53;;;;;;;20.40;11.93;;;;;;;1.45;70.67;98032.59;4951062;29;20417;-69
2023/02/06 05:38:18;;;;;;;13.87;10.87;;;;;;;1.53;70.25;98039.63;4950637;28;21245;-70
2023/02/06 05:40:44;;;;;;;13.70;11.50;;;;;;;1.50;70.35;98039.56;4965441;28;20892;-68
2023/02/06 05:43:10;;;;;;;15.33;12.20;;;;;;;1.46;70.26;98044.72;4968426;28;20589;-69
2023/02/06 05:45:35;;;;;;;15.97;11.77;;;;;;;1.38;70.73;98030.75;4970853;28;20424;-69
2023/02/06 05:48:01;;;;;;;13.73;12.20;;;;;;;1.43;70.43;98029.09;4970748;28;20201;-69
2023/02/06 05:50:26;;;;;;;16.60;10.93;;;;;;;1.53;70.06;98034.44;4970982;28;20173;-69
2023/02/06 05:52:52;;;;;;;16.40;11.33;;;;;;;1.35;70.06;98035.00;4971017;28;20256;-70
2023/02/06 05:55:17;;;;;;;16.77;10.57;;;;;;;1.40;70.06;98025.59;4971345;28;20236;-69
2023/02/06 05:57:43;;;;;;;14.63;11.33;;;;;;;1.47;70.02;98036.09;4969165;28;20228;-70
2023/02/06 06:00:10;;;;;;;12.33;11.03;;;;;;;1.51;69.22;98039.59;4966141;28;20215;-70
2023/02/06 06:02:36;;;;;;;14.10;11.03;;;;;;;1.59;68.90;98047.50;4984904;28;20464;-69
2023/02/06 06:05:01;;;;;;;18.23;10.90;;;;;;;1.48;69.93;98045.56;4970466;28;20433;-69
2023/02/06 06:07:27;;;;;;;19.40;12.13;;;;;;;1.40;69.87;98036.81;4968444;28;20543;-71
2023/02/06 06:09:52;;;;;;;12.40;10.87;;;;;;;1.15;69.95;98034.59;4966166;28;20260;-69
2023/02/06 06:12:18;;;;;;;17.83;11.97;;;;;;;1.16;70.74;98039.81;4966697;28;20177;-69
2023/02/06 06:14:43;;;;;;;9.67;8.00;;;;;;;3.09;89.09;98029.00;4960281;28;20618;-70
2023/02/06 06:17:09;;;;;;;16.03;9.90;;;;;;;5.96;83.70;98022.13;4967743;28;20204;-70
2023/02/06 06:19:34;;;;;;;25.90;13.77;;;;;;;6.31;60.69;98022.13;4982427;28;20173;-67
2023/02/06 06:22:00;;;;;;;19.43;9.40;;;;;;;5.99;73.40;98029.09;4966853;28;20631;-67
2023/02/06 06:24:25;;;;;;;16.73;10.07;;;;;;;3.48;60.84;98047.63;4966862;28;20184;-68
2023/02/06 06:26:51;;;;;;;19.70;11.47;;;;;;;2.87;63.85;98053.81;4964736;28;20185;-68
2023/02/06 06:29:17;;;;;;;12.27;11.07;;;;;;;2.28;64.59;98046.06;4967036;28;20574;-69
2023/02/06 06:31:42;;;;;;;21.17;10.87;;;;;;;1.87;66.15;98062.66;4966306;28;20261;-69
2023/02/06 06:34:07;;;;;;;13.30;10.50;;;;;;;1.67;66.97;98070.06;4971277;28;20224;-69
2023/02/06 06:36:33;;;;;;;17.60;10.40;;;;;;;1.64;66.63;98069.16;4966764;28;20659;-71
2023/02/06 06:38:58;;;;;;;12.73;10.57;;;;;;;1.40;67.80;98064.41;4976923;28;20189;-69
2023/02/06 06:41:24;;;;;;;13.27;11.90;;;;;;;1.46;67.27;98060.22;4970685;28;20182;-69
2023/02/06 06:43:49;;;;;;;15.20;12.50;;;;;;;1.25;68.11;98058.09;4965877;28;20179;-68
2023/02/06 06:46:15;;;;;;;13.67;10.40;;;;;;;1.16;68.63;98065.66;4968579;28;20229;-68
2023/02/06 06:48:40;;;;;;;20.37;12.17;;;;;;;1.30;67.68;98067.63;4964376;28;20180;-71
2023/02/06 06:51:06;;;;;;;14.40;10.93;;;;;;;1.37;67.50;98067.81;4972339;28;20208;-68
2023/02/06 06:53:31;;;;;;;11.13;9.93;;;;;;;1.45;67.56;98065.34;4965686;28;20204;-69
2023/02/06 06:56:05;;;;;;;16.77;11.80;;;;;;;1.76;66.36;98064.19;4965781;28;20182;-71
2023/02/06 06:58:52;;;;;;;12.87;10.67;;;;;;;2.05;65.50;98066.41;4967647;28;20212;-71
2023/02/06 07:01:18;;;;;;;11.83;9.77;;;;;;;1.91;65.17;98061.00;4965512;28;20433;-70
2023/02/06 07:03:46;;;;;;;13.27;10.67;;;;;;;1.92;64.67;98061.88;4961965;28;20969;-69
2023/02/06 07:06:12;;;;;;;14.23;11.00;;;;;;;1.72;64.75;98066.69;4963124;28;20480;-69
2023/02/06 07:08:41;;;;;;;12.20;10.50;;;;;;;1.67;65.13;98070.06;4962590;28;20433;-69
2023/02/06 07:11:14;;;;;;;14.10;9.83;;;;;;;1.62;65.41;98071.72;4965206;28;20260;-69
2023/02/06 07:13:40;;;;;;;11.13;9.63;;;;;;;1.47;65.37;98074.88;4963564;28;20467;-68
2023/02/06 07:16:06;;;;;;;13.57;9.77;;;;;;;1.47;66.39;98074.88;4965122;28;21237;-71
2023/02/06 07:18:31;;;;;;;11.77;10.17;;;;;;;1.75;65.48;98083.16;4954604;28;20532;-69
2023/02/06 07:20:57;;;;;;;15.00;10.53;;;;;;;1.35;65.52;98087.59;4965994;28;20170;-68
2023/02/06 07:23:23;;;;;;;16.50;10.60;;;;;;;1.47;66.00;98090.41;4959015;28;20181;-69
2023/02/06 07:25:48;;;;;;;21.13;10.80;;;;;;;1.61;66.08;98082.06;4961906;28;20173;-67
2023/02/06 07:28:14;;;;;;;12.97;10.00;;;;;;;1.68;65.59;98073.56;4961872;28;20208;-68
2023/02/06 07:30:39;;;;;;;13.17;9.87;;;;;;;1.62;64.28;98066.53;4960566;28;20596;-69
2023/02/06 07:33:05;;;;;;;12.23;8.73;;;;;;;1.61;64.22;98080.31;4955892;28;20906;-69
2023/02/06 07:35:31;;;;;;;10.67;8.50;;;;;;;1.48;65.55;98086.97;4959367;28;20256;-68
2023/02/06 07:37:56;;;;;;;15.77;9.67;;;;;;;1.57;65.64;98082.81;4956080;28;20464;-69
2023/02/06 07:40:23;;;;;;;11.13;9.00;;;;;;;1.69;65.42;98078.72;4960596;28;20177;-68
2023/02/06 07:42:48;;;;;;;12.70;10.80;;;;;;;1.75;64.90;98088.34;4967055;28;20575;-68
2023/02/06 07:45:14;;;;;;;17.63;9.93;;;;;;;1.76;65.33;98078.84;4967069;28;20444;-69
2023/02/06 07:47:39;;;;;;;16.40;9.53;;;;;;;1.88;65.13;98071.31;4967174;28;20578;-68
2023/02/06 07:50:05;;;;;;;14.13;9.57;;;;;;;1.95;64.84;98072.28;4966676;28;20305;-68
2023/02/06 07:52:31;;;;;;;12.30;9.67;;;;;;;1.87;64.95;98080.78;4967658;28;20182;-68
2023/02/06 07:54:56;;;;;;;20.23;10.70;;;;;;;1.80;65.74;98083.25;4968680;28;20563;-69
2023/02/06 07:57:22;;;;;;;18.60;9.63;;;;;;;1.85;65.07;98066.94;4968390;28;20276;-70
2023/02/06 07:59:47;;;;;;;15.80;9.47;;;;;;;1.78;65.56;98070.28;4968624;28;20174;-69
2023/02/06 08:02:13;;;;;;;13.10;9.70;;;;;;;2.04;65.00;98080.22;4968633;28;20252;-70
2023/02/06 08:04:38;;;;;;;20.20;10.30;;;;;;;1.92;65.61;98080.88;4968432;28;20645;-70
2023/02/06 08:07:05;;;;;;;15.87;12.03;;;;;;;2.04;65.50;98077.63;4967900;28;20197;-69
2023/02/06 08:09:31;;;;;;;12.37;11.03;;;;;;;1.72;65.75;98084.81;4968309;28;20185;-70
2023/02/06 08:11:57;;;;;;;15.87;10.97;;;;;;;1.60;66.83;98073.38;4966853;28;20489;-69
2023/02/06 08:14:23;;;;;;;13.40;9.67;;;;;;;1.70;66.35;98069.25;4968323;28;20531;-69
2023/02/06 08:16:49;;;;;;;14.97;10.40;;;;;;;1.57;67.36;98069.88;4967873;28;20921;-68
2023/02/06 08:19:14;;;;;;;14.87;10.23;;;;;;;1.64;67.01;98072.59;4968211;28;20419;-69
2023/02/06 08:21:40;;;;;;;11.80;8.20;;;;;;;1.58;64.86;98069.03;4968651;28;20176;-68
2023/02/06 08:24:06;;;;;;;10.30;7.40;;;;;;;1.85;64.63;98073.84;4968211;28;20611;-71
2023/02/06 08:26:32;;;;;;;9.53;6.90;;;;;;;1.72;65.65;98077.06;4967909;28;20268;-70
2023/02/06 08:29:02;;;;;;;29.17;9.17;;;;;;;1.95;64.33;98075.75;4968261;28;20251;-69
2023/02/06 08:31:31;;;;;;;13.00;7.27;;;;;;;2.16;63.36;98084.72;4968344;28;20416;-69
2023/02/06 08:33:57;;;;;;;12.43;7.93;;;;;;;2.16;63.31;98069.19;4968120;28;20460;-71
2023/02/06 08:36:23;;;;;;;9.80;6.63;;;;;;;2.25;62.85;98080.56;4967597;28;20517;-72
2023/02/06 08:38:51;;;;;;;9.90;6.97;;;;;;;1.94;64.00;98081.78;4967436;28;20460;-70
2023/02/06 08:41:24;;;;;;;9.47;7.30;;;;;;;1.97;63.07;98083.53;4967717;28;20757;-70
2023/02/06 08:43:53;;;;;;;17.73;6.70;;;;;;;2.08;62.18;98076.84;4967710;28;20408;-69
2023/02/06 08:46:20;;;;;;;8.93;5.00;;;;;;;2.23;62.04;98081.38;4967329;28;20879;-69
2023/02/06 08:48:46;;;;;;;10.70;7.60;;;;;;;2.04;63.33;98073.31;4967776;28;20496;-68
2023/02/06 08:51:13;;;;;;;10.47;6.40;;;;;;;2.11;61.88;98076.88;4967600;28;20413;-70
2023/02/06 08:53:38;;;;;;;7.70;5.90;;;;;;;2.29;60.37;98074.59;4967374;28;20461;-69
2023/02/06 08:56:07;;;;;;;35.03;8.30;;;;;;;2.35;60.97;98075.53;4967012;28;20564;-67
2023/02/06 08:58:33;;;;;;;9.37;6.13;;;;;;;2.73;60.22;98074.34;4967395;28;20217;-69
2023/02/06 09:01:08;;;;;;;10.53;6.10;;;;;;;1.90;62.22;98082.56;4970371;28;20423;-70
2023/02/06 09:03:34;;;;;;;8.70;7.37;;;;;;;2.05;63.32;98084.53;4971502;28;20828;-69
2023/02/06 09:06:00;;;;;;;8.00;7.20;;;;;;;1.99;63.30;98080.13;4970877;28;20411;-69
2023/02/06 09:08:26;;;;;;;25.83;9.13;;;;;;;2.18;63.35;98073.53;4971600;28;20440;-69
2023/02/06 09:10:51;;;;;;;12.33;7.50;;;;;;;2.42;62.12;98074.78;4971232;28;20411;-69
2023/02/06 09:13:17;;;;;;;11.37;7.23;;;;;;;2.05;62.31;98074.16;4971388;28;20193;-70
2023/02/06 09:15:49;;;;;;;14.30;6.37;;;;;;;2.36;61.72;98059.13;4971636;28;20180;-69
2023/02/06 09:18:15;;;;;;;12.30;7.30;;;;;;;2.41;61.55;98050.59;4971608;28;20193;-70
2023/02/06 09:20:40;;;;;;;9.00;6.63;;;;;;;2.13;62.75;98057.06;4971493;28;20471;-70
2023/02/06 09:23:05;;;;;;;7.23;6.10;;;;;;;1.98;61.27;98056.78;4971242;28;20169;-70
2023/02/06 09:25:31;;;;;;;12.10;6.83;;;;;;;2.02;60.40;98063.78;4971553;28;20173;-70
2023/02/06 09:27:56;;;;;;;9.50;6.70;;;;;;;1.88;61.21;98060.94;4970988;28;20726;-70
2023/02/06 09:30:22;;;;;;;8.90;5.30;;;;;;;1.77;60.83;98065.06;4971309;28;20592;-70
2023/02/06 09:32:47;;;;;;;7.73;6.00;;;;;;;1.63;61.66;98064.81;4969863;28;20228;-70
2023/02/06 09:35:12;;;;;;;12.93;6.70;;;;;;;1.84;62.25;98060.03;4971133;28;20306;-71
2023/02/06 09:37:38;;;;;;;37.43;9.50;;;;;;;2.28;60.83;98059.88;4970834;28;20197;-71
2023/02/06 09:40:04;;;;;;;24.43;6.87;;;;;;;2.21;60.56;98050.25;4971133;28;20191;-70
2023/02/06 09:42:33;;;;;;;15.17;7.20;;;;;;;2.54;59.58;98055.06;4971198;28;20181;-69
2023/02/06 09:45:08;;;;;;;9.80;6.07;;;;;;;2.46;59.95;98042.88;4970835;28;20176;-69
2023/02/06 09:47:36;;;;;;;8.00;5.93;;;;;;;2.56;58.85;98039.56;4970697;28;20432;-70
2023/02/06 09:50:16;;;;;;;7.70;6.43;;;;;;;2.65;59.66;98042.28;4970424;28;20417;-71
2023/02/06 09:53:10;;;;;;;7.17;5.90;;;;;;;2.46;59.54;98050.66;4970218;28;20405;-70
2023/02/06 09:55:36;;;;;;;9.93;6.73;;;;;;;2.44;60.15;98042.84;4970359;28;20417;-69
2023/02/06 09:58:21;;;;;;;13.90;6.37;;;;;;;2.61;60.08;98037.91;4970249;28;20943;-69
2023/02/06 10:00:55;;;;;;;8.83;5.83;;;;;;;2.63;59.13;98043.97;4970415;28;20239;-69
2023/02/06 10:03:38;;;;;;;9.10;6.13;;;;;;;2.69;58.87;98041.47;4970438;28;20405;-70
2023/02/06 10:06:17;;;;;;;6.97;6.00;;;;;;;2.52;58.95;98037.75;4969717;28;20421;-69
2023/02/06 10:09:06;;;;;;;14.27;7.57;;;;;;;2.51;59.46;98031.72;4970127;28;20573;-70
2023/02/06 10:11:48;;;;;;;8.97;6.10;;;;;;;2.21;60.35;98036.44;4970407;28;20800;-69
2023/02/06 10:14:44;;;;;;;8.10;6.40;;;;;;;2.24;59.87;98032.16;4970239;28;20871;-69
2023/02/06 10:17:59;;;;;;;10.30;6.67;;;;;;;2.10;60.40;98033.69;4969913;28;20499;-68
2023/02/06 10:20:32;;;;;;;13.57;8.17;;;;;;;2.28;59.68;98026.19;4971182;28;20604;-68
2023/02/06 10:23:09;;;;;;;12.33;6.80;;;;;;;2.35;58.56;98034.06;4970447;28;20413;-69
2023/02/06 10:26:29;;;;;;;19.53;7.60;;;;;;;2.26;58.62;98030.47;4970339;28;21233;-69
2023/02/06 10:28:58;;;;;;;9.50;6.43;;;;;;;2.40;58.11;98012.56;4960147;28;20548;-68
2023/02/06 10:31:24;;;;;;;8.20;6.10;;;;;;;2.46;58.01;97999.69;4972554;28;20428;-69
2023/02/06 10:34:08;;;;;;;17.10;8.47;;;;;;;2.56;58.38;98011.06;4971488;28;20464;-69
2023/02/06 10:36:51;;;;;;;18.50;7.97;;;;;;;2.48;58.63;98016.13;4972049;28;20186;-68
2023/02/06 10:39:44;;;;;;;79.30;13.50;;;;;;;2.65;58.79;98000.81;4972308;28;20428;-69
2023/02/06 10:42:33;;;;;;;12.13;6.53;;;;;;;2.54;58.85;98004.97;4970402;28;20475;-69
2023/02/06 10:45:15;;;;;;;13.20;7.07;;;;;;;2.41;58.94;98006.53;4961173;28;20509;-70
2023/02/06 10:47:58;;;;;;;12.60;6.60;;;;;;;2.37;59.81;97988.34;4950474;28;20826;-70
2023/02/06 10:50:29;;;;;;;9.63;6.77;;;;;;;2.50;60.20;97979.88;4950600;28;20489;-69
2023/02/06 10:52:58;;;;;;;10.37;6.80;;;;;;;2.56;59.83;97973.91;4950176;28;20418;-69
2023/02/06 10:55:36;;;;;;;7.67;6.50;;;;;;;2.61;59.12;97974.84;4950055;28;20509;-68
2023/02/06 10:58:25;;;;;;;9.30;8.23;;;;;;;2.67;59.53;97970.59;4949987;28;20437;-68
2023/02/06 11:00:51;;;;;;;7.87;6.67;;;;;;;2.56;59.14;97966.13;4949364;28;20931;-70
2023/02/06 11:03:23;;;;;;;9.80;6.80;;;;;;;2.47;59.24;97967.75;4951237;28;20812;-69
2023/02/06 11:05:51;;;;;;;9.20;6.40;;;;;;;2.55;59.02;97975.59;4950300;28;20461;-67
2023/02/06 11:08:24;;;;;;;9.03;6.57;;;;;;;2.51;59.59;97974.72;4949956;28;20460;-69
2023/02/06 11:10:50;;;;;;;8.20;6.47;;;;;;;2.27;60.12;97977.84;4950296;28;20496;-70
2023/02/06 11:13:33;;;;;;;7.50;6.10;;;;;;;1.93;60.83;97981.63;4950304;28;20742;-70
2023/02/06 11:16:07;;;;;;;8.67;6.63;;;;;;;1.82;61.93;97980.59;4950199;28;20791;-69
2023/02/06 11:18:36;;;;;;;17.00;7.40;;;;;;;2.11;61.65;97970.69;4950058;28;20434;-69
2023/02/06 11:21:02;;;;;;;8.33;6.90;;;;;;;2.20;60.80;97965.66;4949973;28;20439;-69
2023/02/06 11:23:29;;;;;;;8.17;7.20;;;;;;;1.99;61.19;97948.09;4949888;28;20410;-70
2023/02/06 11:26:17;;;;;;;9.03;6.60;;;;;;;2.08;61.14;97952.53;4949900;28;20963;-67
2023/02/06 11:28:51;;;;;;;41.10;12.23;;;;;;;2.45;60.25;97951.28;4950130;28;20453;-69
2023/02/06 11:31:19;;;;;;;12.87;7.90;;;;;;;2.51;59.82;97947.94;4950137;28;20478;-70
2023/02/06 11:33:44;;;;;;;30.57;8.97;;;;;;;2.28;60.87;97943.31;4950472;28;20553;-68
2023/02/06 11:36:37;;;;;;;7.83;7.03;;;;;;;2.28;60.64;97942.44;4950368;28;20505;-69
2023/02/06 11:39:18;;;;;;;30.23;8.30;;;;;;;2.32;60.76;97945.09;4949762;28;20202;-70
2023/02/06 11:41:56;;;;;;;11.20;7.80;;;;;;;2.18;60.53;97932.81;4949752;28;20421;-70